createdAt,value
2024-02-09T00:00:13.978Z,15.60
2024-02-09T00:02:43.140Z,14.00
2024-02-09T00:05:11.568Z,14.90
2024-02-09T00:07:39.266Z,13.10
2024-02-09T00:10:06.940Z,15.10
2024-02-09T00:12:35.892Z,16.00
2024-02-09T00:15:07.590Z,15.50
2024-02-09T00:17:35.275Z,12.70
2024-02-09T00:20:02.933Z,15.40
2024-02-09T00:22:30.315Z,15.30
2024-02-09T00:24:57.977Z,12.90
2024-02-09T00:27:24.913Z,13.30
2024-02-09T00:29:52.090Z,13.10
2024-02-09T00:32:19.048Z,18.60
2024-02-09T00:34:47.006Z,18.20
2024-02-09T00:37:14.124Z,13.20
2024-02-09T00:39:43.556Z,15.20
2024-02-09T00:42:13.587Z,12.90
2024-02-09T00:44:40.713Z,11.50
2024-02-09T00:47:08.790Z,13.00
2024-02-09T00:49:36.163Z,13.20
2024-02-09T00:52:03.569Z,12.10
2024-02-09T00:54:30.956Z,14.10
2024-02-09T00:56:57.921Z,14.90
2024-02-09T00:59:24.995Z,14.10
2024-02-09T01:02:05.067Z,12.40
2024-02-09T01:04:35.462Z,9.90
2024-02-09T01:07:05.650Z,10.40
2024-02-09T01:09:36.222Z,9.30
2024-02-09T01:12:09.601Z,9.10
2024-02-09T01:14:55.628Z,9.50
2024-02-09T01:17:41.319Z,10.80
2024-02-09T01:20:27.332Z,10.50
2024-02-09T01:23:12.490Z,9.40
2024-02-09T01:25:58.014Z,11.40
2024-02-09T01:28:43.320Z,11.40
2024-02-09T01:31:29.009Z,9.50
2024-02-09T01:34:14.219Z,10.70
2024-02-09T01:36:59.862Z,10.40
2024-02-09T01:39:45.122Z,11.60
2024-02-09T01:42:30.226Z,14.10
2024-02-09T01:45:15.463Z,12.70
2024-02-09T01:48:00.861Z,13.10
2024-02-09T01:50:46.634Z,14.60
2024-02-09T01:53:32.188Z,14.70
2024-02-09T01:56:17.943Z,14.40
2024-02-09T01:59:03.290Z,11.00
2024-02-09T02:01:49.036Z,14.10
2024-02-09T02:04:34.735Z,12.70
2024-02-09T02:07:20.115Z,11.90
2024-02-09T02:10:05.529Z,11.40
2024-02-09T02:12:51.117Z,10.80
2024-02-09T02:15:36.602Z,11.90
2024-02-09T02:18:22.343Z,11.10
2024-02-09T02:21:07.427Z,10.00
2024-02-09T02:23:52.731Z,9.90
2024-02-09T02:26:38.222Z,10.30
2024-02-09T02:29:23.393Z,10.20
2024-02-09T02:32:09.436Z,9.60
2024-02-09T02:34:54.665Z,13.60
2024-02-09T02:37:40.374Z,11.60
2024-02-09T02:40:26.813Z,11.60
2024-02-09T02:42:53.684Z,11.80
2024-02-09T02:45:20.542Z,13.60
2024-02-09T02:48:07.465Z,15.70
2024-02-09T02:50:52.725Z,13.40
2024-02-09T02:53:37.980Z,16.30
2024-02-09T02:56:23.151Z,16.30
2024-02-09T02:59:08.712Z,17.00
2024-02-09T03:01:54.242Z,17.30
2024-02-09T03:04:21.272Z,16.70
2024-02-09T03:07:10.352Z,16.50
2024-02-09T03:09:35.978Z,15.40
2024-02-09T03:12:03.092Z,15.30
2024-02-09T03:14:31.710Z,19.40
2024-02-09T03:16:58.784Z,18.10
2024-02-09T03:19:25.941Z,18.20
2024-02-09T03:21:55.483Z,17.20
2024-02-09T03:24:22.692Z,17.20
2024-02-09T03:26:49.628Z,12.00
2024-02-09T03:29:16.591Z,12.50
2024-02-09T03:31:43.887Z,13.80
2024-02-09T03:34:11.207Z,11.90
2024-02-09T03:36:38.229Z,13.10
2024-02-09T03:39:07.171Z,11.40
2024-02-09T03:41:34.133Z,11.30
2024-02-09T03:44:05.706Z,11.00
2024-02-09T03:46:34.216Z,11.70
2024-02-09T03:49:01.441Z,13.10
2024-02-09T03:51:28.495Z,13.40
2024-02-09T03:53:55.404Z,11.70
2024-02-09T03:56:22.266Z,12.20
2024-02-09T03:58:49.254Z,14.10
2024-02-09T04:01:16.689Z,12.30
2024-02-09T04:03:43.948Z,13.00
2024-02-09T04:06:11.138Z,13.20
2024-02-09T04:08:38.095Z,13.60
2024-02-09T04:11:05.022Z,13.00
2024-02-09T04:13:31.990Z,11.10
2024-02-09T04:16:01.958Z,13.80
2024-02-09T04:18:30.740Z,11.60
2024-02-09T04:20:57.921Z,12.80
2024-02-09T04:23:24.951Z,13.60
2024-02-09T04:25:51.876Z,12.50
2024-02-09T04:28:19.711Z,10.90
2024-02-09T04:30:49.617Z,11.10
2024-02-09T04:33:17.701Z,10.20
2024-02-09T04:35:45.046Z,10.30
2024-02-09T04:38:12.205Z,12.40
2024-02-09T04:40:40.315Z,9.50
2024-02-09T04:43:07.430Z,12.10
2024-02-09T04:45:34.685Z,11.20
2024-02-09T04:48:01.709Z,9.90
2024-02-09T04:50:28.717Z,11.20
2024-02-09T04:52:56.151Z,11.00
2024-02-09T04:55:23.134Z,12.30
2024-02-09T04:57:50.070Z,9.60
2024-02-09T05:00:17.410Z,12.70
2024-02-09T05:02:48.224Z,11.80
2024-02-09T05:05:15.573Z,10.90
2024-02-09T05:07:42.923Z,12.10
2024-02-09T05:10:10.422Z,11.70
2024-02-09T05:12:37.380Z,11.00
2024-02-09T05:15:04.712Z,9.40
2024-02-09T05:17:31.986Z,9.20
2024-02-09T05:20:00.057Z,8.90
2024-02-09T05:22:29.958Z,8.10
2024-02-09T05:24:57.459Z,7.70
2024-02-09T05:27:24.406Z,7.40
2024-02-09T05:29:51.437Z,7.20
2024-02-09T05:32:18.297Z,8.00
2024-02-09T05:34:46.071Z,6.80
2024-02-09T05:37:14.660Z,6.40
2024-02-09T05:39:44.074Z,9.80
2024-02-09T05:42:11.052Z,7.10
2024-02-09T05:44:38.051Z,6.50
2024-02-09T05:47:05.054Z,6.70
2024-02-09T05:49:32.329Z,7.50
2024-02-09T05:52:00.042Z,6.30
2024-02-09T05:54:27.404Z,6.40
2024-02-09T05:56:54.435Z,8.10
2024-02-09T05:59:23.142Z,6.50
2024-02-09T06:01:50.348Z,8.30
2024-02-09T06:04:17.666Z,10.30
2024-02-09T06:06:47.746Z,7.50
2024-02-09T06:09:14.681Z,8.20
2024-02-09T06:11:41.553Z,7.70
2024-02-09T06:14:10.951Z,10.50
2024-02-09T06:19:05.803Z,10.70
2024-02-09T06:21:33.766Z,9.10
2024-02-09T06:24:02.057Z,9.80
2024-02-09T06:26:29.451Z,11.80
2024-02-09T06:28:56.501Z,11.00
2024-02-09T06:31:27.240Z,9.30
2024-02-09T06:33:56.878Z,11.40
2024-02-09T06:36:24.776Z,12.50
2024-02-09T06:38:52.123Z,16.30
2024-02-09T06:41:19.040Z,11.80
2024-02-09T06:43:46.089Z,10.50
2024-02-09T06:46:13.203Z,7.00
2024-02-09T06:48:41.423Z,9.30
2024-02-09T06:51:09.207Z,7.60
2024-02-09T06:53:36.110Z,6.00
2024-02-09T06:56:03.014Z,7.40
2024-02-09T06:58:31.164Z,6.90
2024-02-09T07:00:58.229Z,5.90
2024-02-09T07:03:28.047Z,6.70
2024-02-09T07:05:56.017Z,8.40
2024-02-09T07:08:32.199Z,8.40
2024-02-09T07:11:02.463Z,8.20
2024-02-09T07:13:29.643Z,10.40
2024-02-09T07:15:56.860Z,9.90
2024-02-09T07:18:23.736Z,10.70
2024-02-09T07:20:51.450Z,9.70
2024-02-09T07:23:18.946Z,8.80
2024-02-09T07:25:46.140Z,8.40
2024-02-09T07:28:14.751Z,8.90
2024-02-09T07:30:41.763Z,8.30
2024-02-09T07:33:08.913Z,8.10
2024-02-09T07:35:36.234Z,7.90
2024-02-09T07:38:04.065Z,10.20
2024-02-09T07:40:31.272Z,13.00
2024-02-09T07:42:58.155Z,8.40
2024-02-09T07:45:25.352Z,7.70
2024-02-09T07:47:54.909Z,9.30
2024-02-09T07:52:50.969Z,9.20
2024-02-09T07:55:19.933Z,11.80
2024-02-09T07:57:46.779Z,11.80
2024-02-09T08:00:18.513Z,6.50
2024-02-09T08:02:46.576Z,7.20
2024-02-09T08:05:19.599Z,6.60
2024-02-09T08:07:50.663Z,5.70
2024-02-09T08:10:18.170Z,7.00
2024-02-09T08:12:48.447Z,6.90
2024-02-09T08:15:15.448Z,7.00
2024-02-09T08:17:52.865Z,7.30
2024-02-09T08:20:21.223Z,9.20
2024-02-09T08:22:49.076Z,9.40
2024-02-09T08:25:16.344Z,8.80
2024-02-09T08:27:43.632Z,12.10
2024-02-09T08:30:10.947Z,10.20
2024-02-09T08:32:42.605Z,12.20
2024-02-09T08:35:10.337Z,9.90
2024-02-09T08:37:38.253Z,8.60
2024-02-09T08:40:05.820Z,7.50
2024-02-09T08:42:32.958Z,7.80
2024-02-09T08:44:59.889Z,8.20
2024-02-09T08:47:26.857Z,9.70
2024-02-09T08:49:54.016Z,7.90
2024-02-09T08:52:21.068Z,8.80
2024-02-09T08:54:48.033Z,10.10
2024-02-09T08:57:19.904Z,9.70
2024-02-09T08:59:47.028Z,10.30
2024-02-09T09:02:14.211Z,7.70
2024-02-09T09:04:41.464Z,10.00
2024-02-09T09:07:08.724Z,8.10
2024-02-09T09:09:35.754Z,8.30
2024-02-09T09:12:08.556Z,10.50
2024-02-09T09:14:38.339Z,9.80
2024-02-09T09:17:16.778Z,10.70
2024-02-09T09:19:48.717Z,10.30
2024-02-09T09:22:16.169Z,9.90
2024-02-09T09:24:43.088Z,12.40
2024-02-09T09:27:10.139Z,8.20
2024-02-09T09:29:37.276Z,8.20
2024-02-09T09:32:04.614Z,8.80
2024-02-09T09:34:32.841Z,8.10
2024-02-09T09:37:00.215Z,12.60
2024-02-09T09:39:28.482Z,11.50
2024-02-09T09:41:58.062Z,11.60
2024-02-09T09:46:55.398Z,8.70
2024-02-09T09:49:24.376Z,11.20
2024-02-09T09:51:52.215Z,11.00
2024-02-09T09:54:22.964Z,11.20
2024-02-09T09:56:50.351Z,10.10
2024-02-09T09:59:20.422Z,14.90
2024-02-09T10:01:51.055Z,12.20
2024-02-09T10:04:18.423Z,10.50
2024-02-09T10:06:46.098Z,11.00
2024-02-09T10:09:14.081Z,11.60
2024-02-09T10:11:42.677Z,13.80
2024-02-09T10:14:16.490Z,14.30
2024-02-09T10:16:45.841Z,9.80
2024-02-09T10:19:15.691Z,12.50
2024-02-09T10:21:51.018Z,13.00
2024-02-09T10:24:24.071Z,11.50
2024-02-09T10:26:51.439Z,9.10
2024-02-09T10:29:23.637Z,11.40
2024-02-09T10:31:54.578Z,11.40
2024-02-09T10:34:22.276Z,11.20
2024-02-09T10:36:49.683Z,7.70
2024-02-09T10:39:18.721Z,7.70
2024-02-09T10:41:49.457Z,12.90
2024-02-09T10:44:16.700Z,11.60
2024-02-09T10:46:44.177Z,10.70
2024-02-09T10:49:11.421Z,7.30
2024-02-09T10:51:39.803Z,6.60
2024-02-09T10:54:48.962Z,7.10
2024-02-09T10:57:15.883Z,10.50
2024-02-09T10:59:43.544Z,9.90
2024-02-09T11:02:11.391Z,8.20
2024-02-09T11:04:38.481Z,9.30
2024-02-09T11:07:05.661Z,8.20
2024-02-09T11:09:32.738Z,8.70
2024-02-09T11:12:06.011Z,9.70
2024-02-09T11:14:38.378Z,8.90
2024-02-09T11:17:09.243Z,9.80
2024-02-09T11:19:39.961Z,10.10
2024-02-09T11:22:08.201Z,9.40
2024-02-09T11:24:35.185Z,9.30
2024-02-09T11:27:02.953Z,8.50
2024-02-09T11:29:33.625Z,8.20
2024-02-09T11:32:04.206Z,7.90
2024-02-09T11:34:34.221Z,11.30
2024-02-09T11:37:02.432Z,41.70
2024-02-09T11:39:33.513Z,14.00
2024-02-09T11:42:04.528Z,16.70
2024-02-09T11:44:31.741Z,15.10
2024-02-09T11:46:59.205Z,14.50
2024-02-09T11:49:28.461Z,13.60
2024-02-09T11:52:05.418Z,10.60
2024-02-09T11:54:32.658Z,11.50
2024-02-09T11:56:59.682Z,10.00
2024-02-09T11:59:26.810Z,17.80
2024-02-09T12:01:56.787Z,25.30
2024-02-09T12:04:24.098Z,26.00
2024-02-09T12:06:51.326Z,22.20
2024-02-09T12:09:18.443Z,16.70
2024-02-09T12:11:48.628Z,16.90
2024-02-09T12:14:15.822Z,14.70
2024-02-09T12:16:42.766Z,13.20
2024-02-09T12:19:10.023Z,14.40
2024-02-09T12:21:37.157Z,13.60
2024-02-09T12:24:05.510Z,14.20
2024-02-09T12:26:33.520Z,14.10
2024-02-09T12:29:00.743Z,11.10
2024-02-09T12:31:27.777Z,12.40
2024-02-09T12:33:56.356Z,12.30
2024-02-09T12:36:23.534Z,11.60
2024-02-09T12:38:57.987Z,12.60
2024-02-09T12:41:28.418Z,10.20
2024-02-09T12:44:01.585Z,13.60
2024-02-09T12:46:30.459Z,12.90
2024-02-09T12:48:57.874Z,13.00
2024-02-09T12:51:25.214Z,12.50
2024-02-09T12:53:52.574Z,11.00
2024-02-09T12:56:20.314Z,13.40
2024-02-09T12:58:48.406Z,10.10
2024-02-09T13:01:15.893Z,14.40
2024-02-09T13:03:44.735Z,11.90
2024-02-09T13:06:15.140Z,16.80
2024-02-09T13:08:42.528Z,13.50
2024-02-09T13:11:09.526Z,14.70
2024-02-09T13:13:38.834Z,10.70
2024-02-09T13:16:07.860Z,11.00
2024-02-09T13:18:35.062Z,9.60
2024-02-09T13:21:02.209Z,9.80
2024-02-09T13:23:30.431Z,11.20
2024-02-09T13:26:00.151Z,8.00
2024-02-09T13:28:31.796Z,9.60
2024-02-09T13:30:59.534Z,9.80
2024-02-09T13:33:26.511Z,9.50
2024-02-09T13:35:53.416Z,12.80
2024-02-09T13:38:20.422Z,8.60
2024-02-09T13:40:47.721Z,9.50
2024-02-09T13:43:14.841Z,9.80
2024-02-09T13:45:42.410Z,8.90
2024-02-09T13:48:11.397Z,10.80
2024-02-09T13:50:39.019Z,11.00
2024-02-09T13:53:06.344Z,10.50
2024-02-09T13:55:34.722Z,20.20
2024-02-09T13:58:01.751Z,13.80
2024-02-09T14:00:29.256Z,15.80
2024-02-09T14:02:56.186Z,13.40
2024-02-09T14:05:23.852Z,11.80
2024-02-09T14:07:52.797Z,12.60
2024-02-09T14:10:20.496Z,12.90
2024-02-09T14:12:48.712Z,13.30
2024-02-09T14:15:15.970Z,10.20
2024-02-09T14:17:43.307Z,12.00
2024-02-09T14:20:11.809Z,10.70
2024-02-09T14:22:39.046Z,13.70
2024-02-09T14:25:06.114Z,10.60
2024-02-09T14:27:33.431Z,11.90
2024-02-09T14:30:01.026Z,10.40
2024-02-09T14:32:28.141Z,10.90
2024-02-09T14:34:55.197Z,13.90
2024-02-09T14:37:22.908Z,12.60
2024-02-09T14:39:49.948Z,12.30
2024-02-09T14:42:17.129Z,11.30
2024-02-09T14:44:47.465Z,10.90
2024-02-09T14:47:17.490Z,9.20
2024-02-09T14:49:51.404Z,8.60
2024-02-09T14:52:19.349Z,7.70
2024-02-09T14:54:47.301Z,8.70
2024-02-09T14:57:15.142Z,11.20
2024-02-09T14:59:42.886Z,8.50
2024-02-09T15:02:12.629Z,8.30
2024-02-09T15:04:43.185Z,11.10
2024-02-09T15:09:38.275Z,10.00
2024-02-09T15:12:07.353Z,8.60
2024-02-09T15:14:37.497Z,9.90
2024-02-09T15:17:07.225Z,13.50
2024-02-09T15:19:36.328Z,10.40
2024-02-09T15:22:04.682Z,13.40
2024-02-09T15:24:34.858Z,13.80
2024-02-09T15:27:01.870Z,10.20
2024-02-09T15:29:28.989Z,11.60
2024-02-09T15:31:57.334Z,12.70
2024-02-09T15:35:43.908Z,13.80
2024-02-09T15:38:10.923Z,12.60
2024-02-09T15:40:37.964Z,12.80
2024-02-09T15:43:05.173Z,13.70
2024-02-09T15:45:32.262Z,15.90
2024-02-09T15:47:59.397Z,15.00
2024-02-09T15:50:26.566Z,13.10
2024-02-09T15:52:53.774Z,10.30
2024-02-09T15:55:20.951Z,11.50
2024-02-09T15:57:51.265Z,11.90
2024-02-09T16:00:21.885Z,11.40
2024-02-09T16:02:50.091Z,15.10
2024-02-09T16:05:17.415Z,15.50
2024-02-09T16:07:44.955Z,12.50
2024-02-09T16:10:19.411Z,14.20
2024-02-09T16:12:51.697Z,15.20
2024-02-09T16:15:22.734Z,16.20
2024-02-09T16:17:50.142Z,12.00
2024-02-09T16:20:17.658Z,14.70
2024-02-09T16:22:48.469Z,18.60
2024-02-09T16:25:17.801Z,15.90
2024-02-09T16:27:45.714Z,19.90
2024-02-09T16:30:13.868Z,18.90
2024-02-09T16:32:40.922Z,15.70
2024-02-09T16:35:08.655Z,16.80
2024-02-09T16:37:36.115Z,14.20
2024-02-09T16:40:06.434Z,11.90
2024-02-09T16:42:33.987Z,12.60
2024-02-09T16:45:01.128Z,11.60
2024-02-09T16:47:30.143Z,16.10
2024-02-09T16:49:57.269Z,16.20
2024-02-09T16:52:24.600Z,14.60
2024-02-09T16:54:51.876Z,18.10
2024-02-09T16:57:21.370Z,16.30
2024-02-09T16:59:48.438Z,18.10
2024-02-09T17:02:16.076Z,16.20
2024-02-09T17:04:45.054Z,15.70
2024-02-09T17:07:12.584Z,16.50
2024-02-09T17:09:39.603Z,15.60
2024-02-09T17:12:06.872Z,15.90
2024-02-09T17:14:33.879Z,16.10
2024-02-09T17:17:06.931Z,16.20
2024-02-09T17:19:34.341Z,16.10
2024-02-09T17:22:01.525Z,14.10
2024-02-09T17:24:28.787Z,12.60
2024-02-09T17:26:55.785Z,13.60
2024-02-09T17:29:23.016Z,13.10
2024-02-09T17:31:50.010Z,14.80
2024-02-09T17:34:17.226Z,18.70
2024-02-09T17:36:44.417Z,14.80
2024-02-09T17:39:11.758Z,13.60
2024-02-09T17:41:38.749Z,10.70
2024-02-09T17:44:05.925Z,12.40
2024-02-09T17:46:33.045Z,16.50
2024-02-09T17:49:00.290Z,17.00
2024-02-09T17:51:27.537Z,14.50
2024-02-09T17:53:54.680Z,13.50
2024-02-09T17:56:21.678Z,15.30
2024-02-09T17:58:48.940Z,15.10
2024-02-09T18:01:15.979Z,15.90
2024-02-09T18:03:43.201Z,13.00
2024-02-09T18:06:10.490Z,11.60
2024-02-09T18:08:39.642Z,11.40
2024-02-09T18:11:06.720Z,14.60
2024-02-09T18:13:33.977Z,20.00
2024-02-09T18:16:01.111Z,16.60
2024-02-09T18:18:28.181Z,18.20
2024-02-09T18:20:55.241Z,18.00
2024-02-09T18:23:22.744Z,16.30
2024-02-09T18:25:49.979Z,20.20
2024-02-09T18:28:17.193Z,19.60
2024-02-09T18:30:44.307Z,20.40
2024-02-09T18:33:11.400Z,19.50
2024-02-09T18:35:38.612Z,21.10
2024-02-09T18:38:05.493Z,17.50
2024-02-09T18:40:32.542Z,18.30
2024-02-09T18:42:59.654Z,23.00
2024-02-09T18:45:26.691Z,14.60
2024-02-09T18:47:53.617Z,13.70
2024-02-09T18:50:20.861Z,17.00
2024-02-09T18:52:48.017Z,13.00
2024-02-09T18:55:15.902Z,15.00
2024-02-09T18:57:43.549Z,16.00
2024-02-09T19:00:11.232Z,16.40
2024-02-09T19:02:41.120Z,15.60
2024-02-09T19:05:11.510Z,18.30
2024-02-09T19:07:40.119Z,22.20
2024-02-09T19:10:08.075Z,18.50
2024-02-09T19:12:35.443Z,19.90
2024-02-09T19:15:06.456Z,21.30
2024-02-09T19:17:36.227Z,17.70
2024-02-09T19:20:04.373Z,21.10
2024-02-09T19:22:31.919Z,21.70
2024-02-09T19:24:59.174Z,19.40
2024-02-09T19:27:26.728Z,13.60
2024-02-09T19:29:53.725Z,13.40
2024-02-09T19:40:06.267Z,17.20
2024-02-09T19:42:34.722Z,16.60
2024-02-09T19:45:02.278Z,17.00
2024-02-09T19:47:31.459Z,16.60
2024-02-09T19:50:01.207Z,18.10
2024-02-09T19:55:00.420Z,16.50
2024-02-09T19:57:36.179Z,18.30
2024-02-09T20:00:04.956Z,16.80
2024-02-09T20:02:44.531Z,17.40
2024-02-09T20:05:15.662Z,15.30
2024-02-09T20:07:43.985Z,16.60
2024-02-09T20:10:11.518Z,12.70
2024-02-09T20:12:39.949Z,14.80
2024-02-09T20:15:11.792Z,18.00
2024-02-09T20:17:43.206Z,13.70
2024-02-09T20:20:13.613Z,20.30
2024-02-09T20:22:41.633Z,20.20
2024-02-09T20:25:10.192Z,17.40
2024-02-09T20:27:38.513Z,13.70
2024-02-09T20:30:10.498Z,18.90
2024-02-09T20:32:37.854Z,19.70
2024-02-09T20:35:05.217Z,24.20
2024-02-09T20:37:32.931Z,22.20
2024-02-09T20:40:02.168Z,20.30
2024-02-09T20:42:29.400Z,23.40
2024-02-09T20:44:57.266Z,33.50
2024-02-09T20:47:24.410Z,30.60
2024-02-09T20:49:56.732Z,19.00
2024-02-09T20:52:25.565Z,16.90
2024-02-09T20:54:53.131Z,14.90
2024-02-09T20:57:20.141Z,15.00
2024-02-09T20:59:47.132Z,16.60
2024-02-09T21:02:14.736Z,24.10
2024-02-09T21:04:47.384Z,28.80
2024-02-09T21:07:15.095Z,28.20
2024-02-09T21:09:42.347Z,25.60
2024-02-09T21:12:16.324Z,26.30
2024-02-09T21:14:45.132Z,32.80
2024-02-09T21:17:14.790Z,36.60
2024-02-09T21:22:09.033Z,29.50
2024-02-09T21:24:36.713Z,23.60
2024-02-09T21:27:03.930Z,22.30
2024-02-09T21:29:31.218Z,19.10
2024-02-09T21:32:00.210Z,26.50
2024-02-09T21:34:28.246Z,17.90
2024-02-09T21:36:55.449Z,15.00
2024-02-09T21:39:22.568Z,20.60
2024-02-09T21:41:49.563Z,17.00
2024-02-09T21:44:20.571Z,22.60
2024-02-09T21:46:47.633Z,22.50
2024-02-09T21:49:16.187Z,18.60
2024-02-09T21:51:43.528Z,15.90
2024-02-09T21:54:14.715Z,17.10
2024-02-09T21:56:42.712Z,16.60
2024-02-09T21:59:12.453Z,16.90
2024-02-09T22:01:41.176Z,16.50
2024-02-09T22:04:08.352Z,20.30
2024-02-09T22:06:37.113Z,17.40
2024-02-09T22:09:04.145Z,18.60
2024-02-09T22:11:31.195Z,21.30
2024-02-09T22:13:58.308Z,14.20
2024-02-09T22:16:26.567Z,13.40
2024-02-09T22:18:53.629Z,14.10
2024-02-09T22:21:20.580Z,11.80
2024-02-09T22:23:49.813Z,14.90
2024-02-09T22:26:19.727Z,15.40
2024-02-09T22:28:46.934Z,14.70
2024-02-09T22:31:15.472Z,13.10
2024-02-09T22:33:43.314Z,14.00
2024-02-09T22:36:10.739Z,15.80
2024-02-09T22:38:38.631Z,17.00
2024-02-09T22:41:05.757Z,16.60
2024-02-09T22:43:34.379Z,17.40
2024-02-09T22:46:01.346Z,16.70
2024-02-09T22:48:31.152Z,15.00
2024-02-09T22:53:26.102Z,15.10
2024-02-09T22:55:58.892Z,14.60
2024-02-09T22:58:32.033Z,11.80
